sensor_id;sensor_type;location;lat;lon;timestamp;P1;durP1;ratioP1;P2;durP2;ratioP2
77350;SDS011;66420;50.246;14.320;2023-11-19T00:00:29;9.35;;;4.88;;
77350;SDS011;66420;50.246;14.320;2023-11-19T00:03:14;9.65;;;4.50;;
77350;SDS011;66420;50.246;14.320;2023-11-19T00:05:59;10.27;;;5.10;;
77350;SDS011;66420;50.246;14.320;2023-11-19T00:08:44;9.82;;;4.80;;
77350;SDS011;66420;50.246;14.320;2023-11-19T00:11:29;7.28;;;4.53;;
77350;SDS011;66420;50.246;14.320;2023-11-19T00:14:14;7.85;;;4.50;;
77350;SDS011;66420;50.246;14.320;2023-11-19T00:16:59;10.57;;;5.10;;
77350;SDS011;66420;50.246;14.320;2023-11-19T00:19:44;11.07;;;5.05;;
77350;SDS011;66420;50.246;14.320;2023-11-19T00:22:29;11.00;;;5.55;;
77350;SDS011;66420;50.246;14.320;2023-11-19T00:25:14;12.65;;;5.53;;
77350;SDS011;66420;50.246;14.320;2023-11-19T00:27:59;12.63;;;5.60;;
77350;SDS011;66420;50.246;14.320;2023-11-19T00:30:44;10.05;;;4.93;;
77350;SDS011;66420;50.246;14.320;2023-11-19T00:33:29;12.35;;;5.43;;
77350;SDS011;66420;50.246;14.320;2023-11-19T00:36:15;10.20;;;5.93;;
77350;SDS011;66420;50.246;14.320;2023-11-19T00:38:59;10.90;;;5.70;;
77350;SDS011;66420;50.246;14.320;2023-11-19T00:41:44;9.75;;;5.13;;
77350;SDS011;66420;50.246;14.320;2023-11-19T00:44:30;10.30;;;5.35;;
77350;SDS011;66420;50.246;14.320;2023-11-19T00:47:15;10.00;;;5.32;;
77350;SDS011;66420;50.246;14.320;2023-11-19T00:50:00;9.43;;;4.82;;
77350;SDS011;66420;50.246;14.320;2023-11-19T00:52:45;9.05;;;4.88;;
77350;SDS011;66420;50.246;14.320;2023-11-19T00:55:31;11.02;;;5.70;;
77350;SDS011;66420;50.246;14.320;2023-11-19T00:58:16;12.63;;;4.93;;
77350;SDS011;66420;50.246;14.320;2023-11-19T01:01:02;8.93;;;4.68;;
77350;SDS011;66420;50.246;14.320;2023-11-19T01:03:47;10.18;;;5.15;;
77350;SDS011;66420;50.246;14.320;2023-11-19T01:06:31;11.15;;;5.30;;
77350;SDS011;66420;50.246;14.320;2023-11-19T01:09:17;9.93;;;5.35;;
77350;SDS011;66420;50.246;14.320;2023-11-19T01:12:02;8.25;;;4.40;;
77350;SDS011;66420;50.246;14.320;2023-11-19T01:14:47;11.40;;;5.05;;
77350;SDS011;66420;50.246;14.320;2023-11-19T01:17:31;11.63;;;5.28;;
77350;SDS011;66420;50.246;14.320;2023-11-19T01:20:16;9.75;;;5.28;;
77350;SDS011;66420;50.246;14.320;2023-11-19T01:23:01;11.98;;;4.55;;
77350;SDS011;66420;50.246;14.320;2023-11-19T01:25:47;11.50;;;5.80;;
77350;SDS011;66420;50.246;14.320;2023-11-19T01:28:33;10.70;;;4.97;;
77350;SDS011;66420;50.246;14.320;2023-11-19T01:31:18;10.05;;;5.45;;
77350;SDS011;66420;50.246;14.320;2023-11-19T01:34:03;14.07;;;6.15;;
77350;SDS011;66420;50.246;14.320;2023-11-19T01:36:48;9.50;;;4.85;;
77350;SDS011;66420;50.246;14.320;2023-11-19T01:39:33;9.82;;;5.88;;
77350;SDS011;66420;50.246;14.320;2023-11-19T01:42:18;12.27;;;5.35;;
77350;SDS011;66420;50.246;14.320;2023-11-19T01:45:03;11.45;;;5.60;;
77350;SDS011;66420;50.246;14.320;2023-11-19T01:47:50;10.05;;;4.88;;
77350;SDS011;66420;50.246;14.320;2023-11-19T01:50:35;8.57;;;4.53;;
77350;SDS011;66420;50.246;14.320;2023-11-19T01:53:20;10.50;;;5.05;;
77350;SDS011;66420;50.246;14.320;2023-11-19T01:56:06;8.85;;;4.85;;
77350;SDS011;66420;50.246;14.320;2023-11-19T01:58:56;10.90;;;5.22;;
77350;SDS011;66420;50.246;14.320;2023-11-19T02:01:42;11.20;;;5.63;;
77350;SDS011;66420;50.246;14.320;2023-11-19T02:04:27;11.05;;;6.05;;
77350;SDS011;66420;50.246;14.320;2023-11-19T02:07:12;11.35;;;5.90;;
77350;SDS011;66420;50.246;14.320;2023-11-19T02:09:58;10.07;;;5.13;;
77350;SDS011;66420;50.246;14.320;2023-11-19T02:12:44;11.48;;;5.30;;
77350;SDS011;66420;50.246;14.320;2023-11-19T02:15:30;9.75;;;5.35;;
77350;SDS011;66420;50.246;14.320;2023-11-19T02:18:19;10.95;;;5.20;;
77350;SDS011;66420;50.246;14.320;2023-11-19T02:21:12;11.15;;;6.32;;
77350;SDS011;66420;50.246;14.320;2023-11-19T02:23:59;11.77;;;5.28;;
77350;SDS011;66420;50.246;14.320;2023-11-19T02:26:53;10.85;;;5.25;;
77350;SDS011;66420;50.246;14.320;2023-11-19T02:29:46;10.90;;;6.03;;
77350;SDS011;66420;50.246;14.320;2023-11-19T02:32:31;9.75;;;5.63;;
77350;SDS011;66420;50.246;14.320;2023-11-19T02:35:16;10.18;;;5.43;;
77350;SDS011;66420;50.246;14.320;2023-11-19T02:38:01;10.80;;;5.32;;
77350;SDS011;66420;50.246;14.320;2023-11-19T02:40:48;10.18;;;5.20;;
77350;SDS011;66420;50.246;14.320;2023-11-19T02:43:34;11.25;;;5.68;;
77350;SDS011;66420;50.246;14.320;2023-11-19T02:46:18;9.88;;;5.47;;
77350;SDS011;66420;50.246;14.320;2023-11-19T02:49:03;10.75;;;5.30;;
77350;SDS011;66420;50.246;14.320;2023-11-19T02:51:47;11.68;;;5.07;;
77350;SDS011;66420;50.246;14.320;2023-11-19T02:54:32;12.45;;;6.00;;
77350;SDS011;66420;50.246;14.320;2023-11-19T02:57:19;11.05;;;5.10;;
77350;SDS011;66420;50.246;14.320;2023-11-19T03:00:05;11.98;;;5.50;;
77350;SDS011;66420;50.246;14.320;2023-11-19T03:02:56;11.85;;;5.70;;
77350;SDS011;66420;50.246;14.320;2023-11-19T03:05:49;11.05;;;5.82;;
77350;SDS011;66420;50.246;14.320;2023-11-19T03:08:35;9.93;;;5.35;;
77350;SDS011;66420;50.246;14.320;2023-11-19T03:11:20;11.20;;;5.55;;
77350;SDS011;66420;50.246;14.320;2023-11-19T03:14:04;10.05;;;5.72;;
77350;SDS011;66420;50.246;14.320;2023-11-19T03:16:49;11.10;;;6.13;;
77350;SDS011;66420;50.246;14.320;2023-11-19T03:19:35;10.15;;;5.43;;
77350;SDS011;66420;50.246;14.320;2023-11-19T03:22:20;13.02;;;6.10;;
77350;SDS011;66420;50.246;14.320;2023-11-19T03:25:05;9.50;;;5.05;;
77350;SDS011;66420;50.246;14.320;2023-11-19T03:27:52;11.43;;;5.47;;
77350;SDS011;66420;50.246;14.320;2023-11-19T03:30:37;12.23;;;5.75;;
77350;SDS011;66420;50.246;14.320;2023-11-19T03:33:22;11.88;;;5.85;;
77350;SDS011;66420;50.246;14.320;2023-11-19T03:36:08;9.73;;;5.32;;
77350;SDS011;66420;50.246;14.320;2023-11-19T03:38:53;13.77;;;6.10;;
77350;SDS011;66420;50.246;14.320;2023-11-19T03:41:38;10.65;;;5.72;;
77350;SDS011;66420;50.246;14.320;2023-11-19T03:44:23;12.70;;;5.90;;
77350;SDS011;66420;50.246;14.320;2023-11-19T03:47:10;10.40;;;5.38;;
77350;SDS011;66420;50.246;14.320;2023-11-19T03:49:55;10.90;;;5.25;;
77350;SDS011;66420;50.246;14.320;2023-11-19T03:52:39;10.82;;;5.72;;
77350;SDS011;66420;50.246;14.320;2023-11-19T03:55:24;11.90;;;5.95;;
77350;SDS011;66420;50.246;14.320;2023-11-19T03:58:09;10.25;;;5.38;;
77350;SDS011;66420;50.246;14.320;2023-11-19T04:00:54;10.80;;;5.53;;
77350;SDS011;66420;50.246;14.320;2023-11-19T04:03:38;11.48;;;5.70;;
77350;SDS011;66420;50.246;14.320;2023-11-19T04:06:23;12.52;;;5.28;;
77350;SDS011;66420;50.246;14.320;2023-11-19T04:09:08;10.52;;;6.00;;
77350;SDS011;66420;50.246;14.320;2023-11-19T04:11:53;11.48;;;6.13;;
77350;SDS011;66420;50.246;14.320;2023-11-19T04:14:37;10.73;;;5.57;;
77350;SDS011;66420;50.246;14.320;2023-11-19T04:17:22;10.60;;;5.72;;
77350;SDS011;66420;50.246;14.320;2023-11-19T04:20:07;10.98;;;5.82;;
77350;SDS011;66420;50.246;14.320;2023-11-19T04:22:57;10.40;;;5.30;;
77350;SDS011;66420;50.246;14.320;2023-11-19T04:25:42;9.85;;;5.55;;
77350;SDS011;66420;50.246;14.320;2023-11-19T04:28:26;9.70;;;5.28;;
77350;SDS011;66420;50.246;14.320;2023-11-19T04:31:11;11.13;;;5.35;;
77350;SDS011;66420;50.246;14.320;2023-11-19T04:33:56;9.98;;;5.22;;
77350;SDS011;66420;50.246;14.320;2023-11-19T04:36:41;8.77;;;5.20;;
77350;SDS011;66420;50.246;14.320;2023-11-19T04:39:26;9.30;;;5.23;;
77350;SDS011;66420;50.246;14.320;2023-11-19T04:42:10;10.02;;;4.93;;
77350;SDS011;66420;50.246;14.320;2023-11-19T04:44:55;10.10;;;5.15;;
77350;SDS011;66420;50.246;14.320;2023-11-19T04:47:40;9.95;;;5.18;;
77350;SDS011;66420;50.246;14.320;2023-11-19T04:50:25;10.52;;;5.35;;
77350;SDS011;66420;50.246;14.320;2023-11-19T04:53:11;10.30;;;5.82;;
77350;SDS011;66420;50.246;14.320;2023-11-19T04:55:56;8.43;;;4.82;;
77350;SDS011;66420;50.246;14.320;2023-11-19T04:58:41;9.20;;;4.82;;
77350;SDS011;66420;50.246;14.320;2023-11-19T05:01:27;8.80;;;4.70;;
77350;SDS011;66420;50.246;14.320;2023-11-19T05:04:12;8.10;;;4.50;;
77350;SDS011;66420;50.246;14.320;2023-11-19T05:06:56;7.72;;;4.50;;
77350;SDS011;66420;50.246;14.320;2023-11-19T05:09:41;9.32;;;4.90;;
77350;SDS011;66420;50.246;14.320;2023-11-19T05:12:27;9.85;;;4.57;;
77350;SDS011;66420;50.246;14.320;2023-11-19T05:15:12;8.77;;;4.57;;
77350;SDS011;66420;50.246;14.320;2023-11-19T05:17:57;8.80;;;4.25;;
77350;SDS011;66420;50.246;14.320;2023-11-19T05:20:42;6.72;;;4.20;;
77350;SDS011;66420;50.246;14.320;2023-11-19T05:23:27;7.05;;;4.47;;
77350;SDS011;66420;50.246;14.320;2023-11-19T05:26:21;7.80;;;4.28;;
77350;SDS011;66420;50.246;14.320;2023-11-19T05:29:07;7.65;;;4.10;;
77350;SDS011;66420;50.246;14.320;2023-11-19T05:31:52;9.05;;;4.38;;
77350;SDS011;66420;50.246;14.320;2023-11-19T05:34:37;7.93;;;4.20;;
77350;SDS011;66420;50.246;14.320;2023-11-19T05:37:21;7.82;;;4.38;;
77350;SDS011;66420;50.246;14.320;2023-11-19T05:40:06;8.18;;;4.70;;
77350;SDS011;66420;50.246;14.320;2023-11-19T05:42:58;7.32;;;4.40;;
77350;SDS011;66420;50.246;14.320;2023-11-19T05:45:43;8.57;;;4.55;;
77350;SDS011;66420;50.246;14.320;2023-11-19T05:48:27;8.45;;;4.10;;
77350;SDS011;66420;50.246;14.320;2023-11-19T05:51:12;8.32;;;4.28;;
77350;SDS011;66420;50.246;14.320;2023-11-19T05:53:59;8.18;;;4.30;;
77350;SDS011;66420;50.246;14.320;2023-11-19T05:56:47;7.28;;;3.90;;
77350;SDS011;66420;50.246;14.320;2023-11-19T05:59:33;6.93;;;3.97;;
77350;SDS011;66420;50.246;14.320;2023-11-19T06:02:18;8.77;;;4.25;;
77350;SDS011;66420;50.246;14.320;2023-11-19T06:05:03;9.27;;;4.40;;
77350;SDS011;66420;50.246;14.320;2023-11-19T06:07:49;6.50;;;4.00;;
77350;SDS011;66420;50.246;14.320;2023-11-19T06:10:35;6.10;;;3.58;;
77350;SDS011;66420;50.246;14.320;2023-11-19T06:13:20;8.15;;;4.47;;
77350;SDS011;66420;50.246;14.320;2023-11-19T06:16:05;6.15;;;3.40;;
77350;SDS011;66420;50.246;14.320;2023-11-19T06:18:51;8.52;;;4.40;;
77350;SDS011;66420;50.246;14.320;2023-11-19T06:21:37;7.53;;;3.90;;
77350;SDS011;66420;50.246;14.320;2023-11-19T06:24:22;7.20;;;4.22;;
77350;SDS011;66420;50.246;14.320;2023-11-19T06:27:08;6.30;;;3.40;;
77350;SDS011;66420;50.246;14.320;2023-11-19T06:29:52;8.50;;;4.28;;
77350;SDS011;66420;50.246;14.320;2023-11-19T06:32:37;7.43;;;3.95;;
77350;SDS011;66420;50.246;14.320;2023-11-19T06:35:23;8.35;;;4.30;;
77350;SDS011;66420;50.246;14.320;2023-11-19T06:38:08;8.23;;;3.60;;
77350;SDS011;66420;50.246;14.320;2023-11-19T06:40:53;6.80;;;3.78;;
77350;SDS011;66420;50.246;14.320;2023-11-19T06:43:37;5.85;;;3.80;;
77350;SDS011;66420;50.246;14.320;2023-11-19T06:46:23;6.00;;;3.25;;
77350;SDS011;66420;50.246;14.320;2023-11-19T06:49:08;5.38;;;2.90;;
77350;SDS011;66420;50.246;14.320;2023-11-19T06:51:53;6.95;;;3.72;;
77350;SDS011;66420;50.246;14.320;2023-11-19T06:54:39;7.82;;;4.13;;
77350;SDS011;66420;50.246;14.320;2023-11-19T06:57:23;5.93;;;3.28;;
77350;SDS011;66420;50.246;14.320;2023-11-19T07:00:08;7.63;;;4.07;;
77350;SDS011;66420;50.246;14.320;2023-11-19T07:02:55;9.15;;;4.40;;
77350;SDS011;66420;50.246;14.320;2023-11-19T07:05:39;11.40;;;6.28;;
77350;SDS011;66420;50.246;14.320;2023-11-19T07:08:24;11.43;;;6.10;;
77350;SDS011;66420;50.246;14.320;2023-11-19T07:11:11;10.07;;;4.80;;
77350;SDS011;66420;50.246;14.320;2023-11-19T07:13:56;7.35;;;3.67;;
77350;SDS011;66420;50.246;14.320;2023-11-19T07:16:40;11.23;;;5.85;;
77350;SDS011;66420;50.246;14.320;2023-11-19T07:19:26;10.05;;;5.43;;
77350;SDS011;66420;50.246;14.320;2023-11-19T07:22:10;11.00;;;5.97;;
77350;SDS011;66420;50.246;14.320;2023-11-19T07:24:55;11.30;;;5.43;;
77350;SDS011;66420;50.246;14.320;2023-11-19T07:27:40;13.15;;;6.43;;
77350;SDS011;66420;50.246;14.320;2023-11-19T07:30:25;12.13;;;5.88;;
77350;SDS011;66420;50.246;14.320;2023-11-19T07:33:10;7.80;;;4.45;;
77350;SDS011;66420;50.246;14.320;2023-11-19T07:35:55;9.85;;;5.05;;
77350;SDS011;66420;50.246;14.320;2023-11-19T07:38:40;12.90;;;5.45;;
77350;SDS011;66420;50.246;14.320;2023-11-19T07:41:25;9.52;;;4.90;;
77350;SDS011;66420;50.246;14.320;2023-11-19T07:44:10;7.80;;;4.43;;
77350;SDS011;66420;50.246;14.320;2023-11-19T07:46:55;8.85;;;4.60;;
77350;SDS011;66420;50.246;14.320;2023-11-19T07:49:40;8.23;;;4.85;;
77350;SDS011;66420;50.246;14.320;2023-11-19T07:52:27;8.93;;;4.47;;
77350;SDS011;66420;50.246;14.320;2023-11-19T07:55:13;8.80;;;4.78;;
77350;SDS011;66420;50.246;14.320;2023-11-19T07:57:58;9.55;;;4.88;;
77350;SDS011;66420;50.246;14.320;2023-11-19T08:00:42;9.73;;;5.18;;
77350;SDS011;66420;50.246;14.320;2023-11-19T08:03:27;8.27;;;4.65;;
77350;SDS011;66420;50.246;14.320;2023-11-19T08:06:13;8.52;;;4.30;;
77350;SDS011;66420;50.246;14.320;2023-11-19T08:08:58;8.90;;;5.10;;
77350;SDS011;66420;50.246;14.320;2023-11-19T08:11:43;10.02;;;5.40;;
77350;SDS011;66420;50.246;14.320;2023-11-19T08:14:29;8.30;;;4.43;;
77350;SDS011;66420;50.246;14.320;2023-11-19T08:17:13;9.50;;;4.32;;
77350;SDS011;66420;50.246;14.320;2023-11-19T08:19:58;8.15;;;4.22;;
77350;SDS011;66420;50.246;14.320;2023-11-19T08:22:44;6.22;;;3.50;;
77350;SDS011;66420;50.246;14.320;2023-11-19T08:25:30;6.00;;;2.90;;
77350;SDS011;66420;50.246;14.320;2023-11-19T08:28:15;6.55;;;3.33;;
77350;SDS011;66420;50.246;14.320;2023-11-19T08:31:00;6.22;;;3.03;;
77350;SDS011;66420;50.246;14.320;2023-11-19T08:33:45;7.20;;;3.22;;
77350;SDS011;66420;50.246;14.320;2023-11-19T08:36:29;7.43;;;4.05;;
77350;SDS011;66420;50.246;14.320;2023-11-19T08:39:16;14.27;;;6.65;;
77350;SDS011;66420;50.246;14.320;2023-11-19T08:42:00;9.07;;;5.38;;
77350;SDS011;66420;50.246;14.320;2023-11-19T08:44:48;11.98;;;5.95;;
77350;SDS011;66420;50.246;14.320;2023-11-19T08:47:34;10.02;;;5.20;;
77350;SDS011;66420;50.246;14.320;2023-11-19T08:50:20;8.50;;;4.75;;
77350;SDS011;66420;50.246;14.320;2023-11-19T08:53:05;9.90;;;4.28;;
77350;SDS011;66420;50.246;14.320;2023-11-19T08:55:51;10.65;;;5.00;;
77350;SDS011;66420;50.246;14.320;2023-11-19T08:58:36;10.40;;;5.00;;
77350;SDS011;66420;50.246;14.320;2023-11-19T09:01:21;11.48;;;5.28;;
77350;SDS011;66420;50.246;14.320;2023-11-19T09:04:06;10.63;;;5.70;;
77350;SDS011;66420;50.246;14.320;2023-11-19T09:06:51;17.48;;;8.52;;
77350;SDS011;66420;50.246;14.320;2023-11-19T09:09:36;20.17;;;10.30;;
77350;SDS011;66420;50.246;14.320;2023-11-19T09:12:21;15.52;;;6.70;;
77350;SDS011;66420;50.246;14.320;2023-11-19T09:15:06;13.27;;;6.88;;
77350;SDS011;66420;50.246;14.320;2023-11-19T09:17:51;15.48;;;7.25;;
77350;SDS011;66420;50.246;14.320;2023-11-19T09:20:36;12.57;;;6.63;;
77350;SDS011;66420;50.246;14.320;2023-11-19T09:23:23;11.57;;;6.07;;
77350;SDS011;66420;50.246;14.320;2023-11-19T09:26:09;10.88;;;6.00;;
77350;SDS011;66420;50.246;14.320;2023-11-19T09:28:57;12.50;;;6.40;;
77350;SDS011;66420;50.246;14.320;2023-11-19T09:31:42;10.40;;;5.53;;
77350;SDS011;66420;50.246;14.320;2023-11-19T09:34:27;13.88;;;6.95;;
77350;SDS011;66420;50.246;14.320;2023-11-19T09:37:12;10.60;;;6.32;;
77350;SDS011;66420;50.246;14.320;2023-11-19T09:39:56;11.65;;;6.13;;
77350;SDS011;66420;50.246;14.320;2023-11-19T09:42:42;8.90;;;5.15;;
77350;SDS011;66420;50.246;14.320;2023-11-19T09:45:31;12.18;;;6.03;;
77350;SDS011;66420;50.246;14.320;2023-11-19T09:48:23;10.27;;;5.22;;
77350;SDS011;66420;50.246;14.320;2023-11-19T09:51:11;11.02;;;5.28;;
77350;SDS011;66420;50.246;14.320;2023-11-19T09:53:55;9.35;;;4.60;;
77350;SDS011;66420;50.246;14.320;2023-11-19T09:56:40;5.25;;;3.05;;
77350;SDS011;66420;50.246;14.320;2023-11-19T09:59:25;5.18;;;2.65;;
77350;SDS011;66420;50.246;14.320;2023-11-19T10:02:10;6.00;;;2.38;;
77350;SDS011;66420;50.246;14.320;2023-11-19T10:04:56;5.75;;;2.53;;
77350;SDS011;66420;50.246;14.320;2023-11-19T10:07:42;5.55;;;2.40;;
77350;SDS011;66420;50.246;14.320;2023-11-19T10:10:29;6.28;;;2.55;;
77350;SDS011;66420;50.246;14.320;2023-11-19T10:13:13;4.07;;;2.05;;
77350;SDS011;66420;50.246;14.320;2023-11-19T10:15:59;4.80;;;2.28;;
77350;SDS011;66420;50.246;14.320;2023-11-19T10:18:48;3.33;;;1.60;;
77350;SDS011;66420;50.246;14.320;2023-11-19T10:21:37;3.05;;;1.73;;
77350;SDS011;66420;50.246;14.320;2023-11-19T10:24:31;4.00;;;1.70;;
77350;SDS011;66420;50.246;14.320;2023-11-19T10:27:17;3.28;;;1.55;;
77350;SDS011;66420;50.246;14.320;2023-11-19T10:30:03;2.95;;;1.48;;
77350;SDS011;66420;50.246;14.320;2023-11-19T10:35:51;3.17;;;1.60;;
77350;SDS011;66420;50.246;14.320;2023-11-19T10:38:51;2.53;;;1.20;;
77350;SDS011;66420;50.246;14.320;2023-11-19T10:41:36;1.98;;;1.13;;
77350;SDS011;66420;50.246;14.320;2023-11-19T10:44:34;2.65;;;1.20;;
77350;SDS011;66420;50.246;14.320;2023-11-19T10:47:20;3.33;;;1.95;;
77350;SDS011;66420;50.246;14.320;2023-11-19T10:50:07;4.22;;;2.10;;
77350;SDS011;66420;50.246;14.320;2023-11-19T10:52:54;3.35;;;1.40;;
77350;SDS011;66420;50.246;14.320;2023-11-19T10:55:43;3.72;;;1.10;;
77350;SDS011;66420;50.246;14.320;2023-11-19T10:58:32;3.72;;;1.48;;
77350;SDS011;66420;50.246;14.320;2023-11-19T11:01:21;3.88;;;2.00;;
77350;SDS011;66420;50.246;14.320;2023-11-19T11:04:14;2.30;;;1.42;;
77350;SDS011;66420;50.246;14.320;2023-11-19T11:07:06;4.75;;;2.10;;
77350;SDS011;66420;50.246;14.320;2023-11-19T11:09:53;4.88;;;1.60;;
77350;SDS011;66420;50.246;14.320;2023-11-19T11:12:38;3.13;;;1.15;;
77350;SDS011;66420;50.246;14.320;2023-11-19T11:15:26;2.63;;;1.23;;
77350;SDS011;66420;50.246;14.320;2023-11-19T11:18:13;3.00;;;1.67;;
77350;SDS011;66420;50.246;14.320;2023-11-19T11:21:00;5.13;;;1.38;;
77350;SDS011;66420;50.246;14.320;2023-11-19T11:32:45;2.22;;;1.10;;
77350;SDS011;66420;50.246;14.320;2023-11-19T11:38:51;2.03;;;1.02;;
77350;SDS011;66420;50.246;14.320;2023-11-19T11:41:37;1.58;;;0.80;;
77350;SDS011;66420;50.246;14.320;2023-11-19T11:44:57;1.92;;;0.90;;
77350;SDS011;66420;50.246;14.320;2023-11-19T11:50:27;3.22;;;1.10;;
77350;SDS011;66420;50.246;14.320;2023-11-19T11:53:13;2.80;;;1.15;;
77350;SDS011;66420;50.246;14.320;2023-11-19T11:55:58;2.63;;;1.10;;
77350;SDS011;66420;50.246;14.320;2023-11-19T11:58:43;2.90;;;1.10;;
77350;SDS011;66420;50.246;14.320;2023-11-19T12:01:31;2.08;;;1.00;;
77350;SDS011;66420;50.246;14.320;2023-11-19T12:04:15;3.20;;;1.27;;
77350;SDS011;66420;50.246;14.320;2023-11-19T12:07:05;3.85;;;1.20;;
77350;SDS011;66420;50.246;14.320;2023-11-19T12:09:52;3.47;;;1.15;;
77350;SDS011;66420;50.246;14.320;2023-11-19T12:12:39;2.20;;;1.13;;
77350;SDS011;66420;50.246;14.320;2023-11-19T12:15:26;2.20;;;1.00;;
77350;SDS011;66420;50.246;14.320;2023-11-19T12:18:12;3.22;;;1.38;;
77350;SDS011;66420;50.246;14.320;2023-11-19T12:21:04;2.95;;;1.17;;
77350;SDS011;66420;50.246;14.320;2023-11-19T12:23:49;4.40;;;1.10;;
77350;SDS011;66420;50.246;14.320;2023-11-19T12:26:35;4.03;;;1.30;;
77350;SDS011;66420;50.246;14.320;2023-11-19T12:29:23;3.85;;;1.40;;
77350;SDS011;66420;50.246;14.320;2023-11-19T12:32:07;3.55;;;1.27;;
77350;SDS011;66420;50.246;14.320;2023-11-19T12:34:52;5.78;;;1.40;;
77350;SDS011;66420;50.246;14.320;2023-11-19T12:40:30;3.45;;;1.20;;
77350;SDS011;66420;50.246;14.320;2023-11-19T12:43:21;3.00;;;1.00;;
77350;SDS011;66420;50.246;14.320;2023-11-19T12:46:19;3.72;;;1.52;;
77350;SDS011;66420;50.246;14.320;2023-11-19T12:49:08;3.50;;;1.15;;
77350;SDS011;66420;50.246;14.320;2023-11-19T12:51:55;4.90;;;1.30;;
77350;SDS011;66420;50.246;14.320;2023-11-19T12:54:41;4.72;;;1.30;;
77350;SDS011;66420;50.246;14.320;2023-11-19T12:57:35;5.90;;;1.40;;
77350;SDS011;66420;50.246;14.320;2023-11-19T13:00:22;5.07;;;1.40;;
77350;SDS011;66420;50.246;14.320;2023-11-19T13:03:08;6.75;;;1.92;;
77350;SDS011;66420;50.246;14.320;2023-11-19T13:06:00;5.03;;;1.90;;
77350;SDS011;66420;50.246;14.320;2023-11-19T13:08:52;12.77;;;9.07;;
77350;SDS011;66420;50.246;14.320;2023-11-19T13:11:39;6.57;;;1.80;;
77350;SDS011;66420;50.246;14.320;2023-11-19T13:14:35;4.30;;;1.58;;
77350;SDS011;66420;50.246;14.320;2023-11-19T13:17:21;4.93;;;1.50;;
77350;SDS011;66420;50.246;14.320;2023-11-19T13:20:06;4.82;;;1.55;;
77350;SDS011;66420;50.246;14.320;2023-11-19T13:22:55;5.13;;;1.75;;
77350;SDS011;66420;50.246;14.320;2023-11-19T13:25:44;3.03;;;1.60;;
77350;SDS011;66420;50.246;14.320;2023-11-19T13:28:29;4.13;;;1.90;;
77350;SDS011;66420;50.246;14.320;2023-11-19T13:31:15;4.93;;;1.27;;
77350;SDS011;66420;50.246;14.320;2023-11-19T13:34:00;7.88;;;1.63;;
77350;SDS011;66420;50.246;14.320;2023-11-19T13:36:45;2.92;;;1.40;;
77350;SDS011;66420;50.246;14.320;2023-11-19T13:39:30;3.15;;;1.65;;
77350;SDS011;66420;50.246;14.320;2023-11-19T13:42:15;5.35;;;1.60;;
77350;SDS011;66420;50.246;14.320;2023-11-19T13:45:00;3.92;;;1.40;;
77350;SDS011;66420;50.246;14.320;2023-11-19T13:47:45;3.58;;;1.55;;
77350;SDS011;66420;50.246;14.320;2023-11-19T13:50:30;2.47;;;1.60;;
77350;SDS011;66420;50.246;14.320;2023-11-19T13:53:16;4.35;;;1.35;;
77350;SDS011;66420;50.246;14.320;2023-11-19T13:56:01;5.18;;;1.30;;
77350;SDS011;66420;50.246;14.320;2023-11-19T13:58:46;5.70;;;1.60;;
77350;SDS011;66420;50.246;14.320;2023-11-19T14:04:13;5.35;;;1.60;;
77350;SDS011;66420;50.246;14.320;2023-11-19T14:06:58;2.20;;;1.20;;
77350;SDS011;66420;50.246;14.320;2023-11-19T14:09:42;3.33;;;1.40;;
77350;SDS011;66420;50.246;14.320;2023-11-19T14:12:27;4.57;;;2.20;;
77350;SDS011;66420;50.246;14.320;2023-11-19T14:15:12;2.88;;;1.50;;
77350;SDS011;66420;50.246;14.320;2023-11-19T14:17:57;3.28;;;1.48;;
77350;SDS011;66420;50.246;14.320;2023-11-19T14:20:42;5.10;;;1.92;;
77350;SDS011;66420;50.246;14.320;2023-11-19T14:23:28;4.47;;;1.73;;
77350;SDS011;66420;50.246;14.320;2023-11-19T14:26:13;3.08;;;1.60;;
77350;SDS011;66420;50.246;14.320;2023-11-19T14:28:57;4.07;;;1.88;;
77350;SDS011;66420;50.246;14.320;2023-11-19T14:31:42;3.53;;;1.60;;
77350;SDS011;66420;50.246;14.320;2023-11-19T14:34:27;3.70;;;2.25;;
77350;SDS011;66420;50.246;14.320;2023-11-19T14:37:12;3.55;;;1.70;;
77350;SDS011;66420;50.246;14.320;2023-11-19T14:39:57;4.70;;;1.83;;
77350;SDS011;66420;50.246;14.320;2023-11-19T14:42:44;3.80;;;1.48;;
77350;SDS011;66420;50.246;14.320;2023-11-19T14:45:29;5.13;;;2.33;;
77350;SDS011;66420;50.246;14.320;2023-11-19T14:48:14;10.60;;;6.60;;
77350;SDS011;66420;50.246;14.320;2023-11-19T14:50:59;6.03;;;3.13;;
77350;SDS011;66420;50.246;14.320;2023-11-19T14:53:44;8.07;;;3.38;;
77350;SDS011;66420;50.246;14.320;2023-11-19T14:56:29;6.68;;;2.65;;
77350;SDS011;66420;50.246;14.320;2023-11-19T14:59:13;6.55;;;2.40;;
77350;SDS011;66420;50.246;14.320;2023-11-19T15:01:58;9.48;;;3.00;;
77350;SDS011;66420;50.246;14.320;2023-11-19T15:04:44;7.28;;;3.35;;
77350;SDS011;66420;50.246;14.320;2023-11-19T15:07:30;8.68;;;3.88;;
77350;SDS011;66420;50.246;14.320;2023-11-19T15:10:14;12.50;;;4.50;;
77350;SDS011;66420;50.246;14.320;2023-11-19T15:12:59;9.10;;;4.57;;
77350;SDS011;66420;50.246;14.320;2023-11-19T15:15:44;10.65;;;3.33;;
77350;SDS011;66420;50.246;14.320;2023-11-19T15:18:29;8.10;;;2.80;;
77350;SDS011;66420;50.246;14.320;2023-11-19T15:21:13;12.93;;;3.38;;
77350;SDS011;66420;50.246;14.320;2023-11-19T15:23:59;11.52;;;3.65;;
77350;SDS011;66420;50.246;14.320;2023-11-19T15:26:44;9.65;;;4.22;;
77350;SDS011;66420;50.246;14.320;2023-11-19T15:29:29;8.35;;;4.70;;
77350;SDS011;66420;50.246;14.320;2023-11-19T15:32:13;11.73;;;4.07;;
77350;SDS011;66420;50.246;14.320;2023-11-19T15:34:58;9.82;;;5.30;;
77350;SDS011;66420;50.246;14.320;2023-11-19T15:37:43;12.30;;;4.65;;
77350;SDS011;66420;50.246;14.320;2023-11-19T15:40:29;14.57;;;5.97;;
77350;SDS011;66420;50.246;14.320;2023-11-19T15:43:13;10.88;;;4.90;;
77350;SDS011;66420;50.246;14.320;2023-11-19T15:45:58;15.10;;;5.68;;
77350;SDS011;66420;50.246;14.320;2023-11-19T15:48:43;13.32;;;4.93;;
77350;SDS011;66420;50.246;14.320;2023-11-19T15:51:28;12.55;;;5.25;;
77350;SDS011;66420;50.246;14.320;2023-11-19T15:54:13;10.25;;;5.03;;
77350;SDS011;66420;50.246;14.320;2023-11-19T15:56:58;9.25;;;5.10;;
77350;SDS011;66420;50.246;14.320;2023-11-19T15:59:42;12.60;;;5.93;;
77350;SDS011;66420;50.246;14.320;2023-11-19T16:02:27;9.70;;;4.68;;
77350;SDS011;66420;50.246;14.320;2023-11-19T16:05:12;11.20;;;5.85;;
77350;SDS011;66420;50.246;14.320;2023-11-19T16:07:57;11.27;;;5.65;;
77350;SDS011;66420;50.246;14.320;2023-11-19T16:10:42;10.20;;;4.90;;
77350;SDS011;66420;50.246;14.320;2023-11-19T16:13:28;10.00;;;5.30;;
77350;SDS011;66420;50.246;14.320;2023-11-19T16:16:12;10.07;;;5.38;;
77350;SDS011;66420;50.246;14.320;2023-11-19T16:18:57;11.57;;;4.53;;
77350;SDS011;66420;50.246;14.320;2023-11-19T16:21:43;6.07;;;3.22;;
77350;SDS011;66420;50.246;14.320;2023-11-19T16:24:28;10.38;;;4.53;;
77350;SDS011;66420;50.246;14.320;2023-11-19T16:27:13;7.05;;;3.90;;
77350;SDS011;66420;50.246;14.320;2023-11-19T16:29:58;10.82;;;6.63;;
77350;SDS011;66420;50.246;14.320;2023-11-19T16:32:53;12.75;;;5.75;;
77350;SDS011;66420;50.246;14.320;2023-11-19T16:35:42;14.52;;;7.45;;
77350;SDS011;66420;50.246;14.320;2023-11-19T16:38:27;15.07;;;6.70;;
77350;SDS011;66420;50.246;14.320;2023-11-19T16:41:13;17.40;;;6.47;;